Bavaria

Go HERE for most recent data if this page is not up to date.

Jump to table bottom
Date Time Temp F RH % AVG Wind Max Wind Wind Dir 24 Snow Depth
*02/25/21 09 14.1 16 6 13 SW - 236 0.6 76.3
*02/25/21 08 13.7 17 12 22 S - 164 0.6 77.0
*02/25/21 07 9.7 13 11 17 SW - 243 0.9 77.2
*02/25/21 06 9.7 12 6 15 SW - 236 0.9 77.2
*02/25/21 05 7.8 15 11 16 W - 283 0.8 77.1
*02/25/21 04 7.1 15 13 16 W - 265 0.9 77.2
*02/25/21 03 3.9 28 14 19 W - 274 0.9 77.2
*02/25/21 02 5.0 24 13 18 NW - 293 0.9 77.3
*02/25/21 01 2.7 40 15 20 NW - 297 0.9 77.2
*02/25/21 00 2.4 67 15 19 W - 292 0.8 77.2
*02/24/21 23 2.6 75 16 21 W - 287 0.8 77.4
*02/24/21 22 2.9 77 14 19 NW - 307 0.4 76.9
*02/24/21 21 3.1 74 12 18 W - 288 0.3 -9.0
*02/24/21 20 2.6 73 4 14 W - 282 0.4 -8.7
*02/24/21 19 1.3 69 4 8 E - 106 0.2 -8.9
*02/24/21 18 3.6 66 7 12 N - 355 0.1 -10.3
*02/24/21 17 9.6 59 6 13 SW - 218 -0.0 -11.2
*02/24/21 16 7.8 64 6 13 W - 269 0.0 -11.0
*02/24/21 15 8.1 69 5 11 S - 165 -0.0 76.8
*02/24/21 14 9.8 67 4 10 W - 264 2.9 151.3
*02/24/21 13 8.9 69 7 13 NW - 328 2.6 151.3
*02/24/21 12 8.4 74 6 10 SW - 215 2.7 151.3
*02/24/21 11 7.1 77 3 7 W - 264 36.8 151.3
*02/24/21 10 12.7 80 4 9 SE - 124 2.3 151.3
*02/24/21 09 11.3 81 3 6 S - 170 2.4 -9.6
*02/24/21 08 4.1 82 3 7 SE - 127 2.4 -9.5
*02/24/21 07 3.1 82 5 13 SE - 133 2.2 -9.5
*02/24/21 06 3.3 82 7 11 W - 270 2.3 76.5
*02/24/21 05 3.4 82 8 13 W - 282 2.6 -9.5
*02/24/21 04 3.4 82 10 15 SW - 223 2.1 -9.6
*02/24/21 03 3.1 82 11 19 W - 252 2.4 76.2
*02/24/21 02 3.3 82 8 14 W - 260 2.2 -9.4
*02/24/21 01 3.3 82 11 18 SW - 240 2.1 -9.3
*02/24/21 00 3.2 80 10 16 W - 279 2.3 -9.6
.